NCAR-RAP Real-Time Weather Data

Output produced by METARs form (23 February 2020  02:14 UTC)
found at http://weather.rap.ucar.edu/surface/
 
KBUF 230154Z 22009KT 10SM CLR 02/M03 A3015 RMK AO2 SLP217 T00221028
KBUF 230054Z 24010KT 10SM CLR 03/M04 A3015 RMK AO2 SLP219 T00281039
KBUF 222354Z 24011G21KT 10SM FEW250 02/M04 A3015 RMK AO2 SLP219 T00221039 10033 20011 53004
KBUF 222254Z 24014G20KT 10SM FEW250 02/M04 A3014 RMK AO2 SLP215 T00221044
KBUF 222154Z 23015G22KT 10SM SCT250 03/M05 A3014 RMK AO2 PK WND 24026/2109 SLP215 T00281050
KBUF 222054Z 23019KT 10SM SCT260 03/M05 A3014 RMK AO2 PK WND 24029/1955 SLP216 T00281050 56015
KBUF 221954Z 24021G29KT 10SM FEW270 03/M07 A3015 RMK AO2 PK WND 25034/1918 SLP218 T00281067
KBUF 221854Z 24022G32KT 10SM FEW027 02/M06 A3016 RMK AO2 PK WND 23036/1830 SLP222 T00221061
KBUF 221754Z 22025G31KT 10SM SCT024 02/M06 A3019 RMK AO2 PK WND 23035/1718 SLP231 T00171056 10022 21006 58011
KBUF 221717Z 23020G34KT 10SM SCT024 02/M05 A3021 RMK AO2 PK WND 23034/1717 T00171050
KBUF 221654Z 24021G35KT 10SM BKN022 01/M05 A3022 RMK AO2 PK WND 25035/1652 SLP241 T00111050
KBUF 221554Z 23016G30KT 10SM BKN022 00/M06 A3022 RMK AO2 PK WND 23030/1549 SLP242 T00001056
KBUF 221454Z 24016G25KT 10SM BKN020 01/M05 A3022 RMK AO2 PK WND 23028/1400 SLP242 T00061050 53006
KBUF 221437Z 24016G22KT 10SM BKN022 BKN350 01/M05 A3022 RMK AO2 PK WND 23028/1400 T00061050
KBUF 221354Z 24017G29KT 10SM FEW024 FEW350 01/M06 A3021 RMK AO2 PK WND 24029/1346 SLP240 T00061056
KBUF 221254Z 24018G27KT 10SM FEW024 00/M06 A3021 RMK AO2 PK WND 26029/1223 SLP238 T00001061
KBUF 221154Z 25019G27KT 10SM FEW040 FEW120 00/M06 A3020 RMK AO2 PK WND 24029/1104 SLP236 T00001061 10000 20000 50002
KBUF 221054Z 24015G23KT 10SM CLR 00/M06 A3021 RMK AO2 PK WND 25030/1012 SLP238 T00001061
KBUF 220954Z 25018G24KT 10SM CLR 00/M07 A3020 RMK AO2 PK WND 23030/0914 SLP235 T00001067
KBUF 220854Z 24020G30KT 10SM FEW031 00/M07 A3020 RMK AO2 PK WND 23035/0755 SLP235 T00001067 50000
KBUF 220754Z 25020G31KT 10SM SCT031 00/M07 A3021 RMK AO2 PK WND 24033/0700 SLP240 T00001067
KBUF 220654Z 24020G29KT 10SM CLR 00/M08 A3022 RMK AO2 PK WND 24038/0605 SLP243 T00001078
KBUF 220554Z 23025G32KT 10SM CLR 00/M09 A3020 RMK AO2 PK WND 24036/0533 SLP235 T00001089 10000 21017 56013
KBUF 220454Z 23022G30KT 10SM CLR 00/M09 A3021 RMK AO2 PK WND 23036/0406 SLP238 T00001089 400001083
KBUF 220354Z 22019G29KT 10SM CLR 00/M09 A3022 RMK AO2 PK WND 23029/0353 SLP241 T00001094
KBUF 220254Z 22015G23KT 10SM CLR M01/M09 A3023 RMK AO2 SLP249 T10111094 58020
KBUF 220154Z 22015G23KT 10SM CLR 00/M07 A3025 RMK AO2 PK WND 23027/0128 SLP255 T00001072
KBUF 220054Z 24018G25KT 10SM CLR 00/M08 A3029 RMK AO2 PK WND 23029/0025 SLP267 T00001078
KBUF 212354Z 24021G30KT 10SM CLR M01/M11 A3029 RMK AO2 PK WND 24030/2300 SLP270 T10061106 11006 21017 56020
KBUF 212254Z 23023G32KT 10SM CLR M01/M13 A3031 RMK AO2 PK WND 24035/2211 SLP274 T10111133
KBUF 212154Z 23024G35KT 10SM FEW025 M01/M11 A3033 RMK AO2 PK WND 24035/2154 SLP284 T10111106
KBUF 212054Z 23022G33KT 10SM FEW026 M02/M08 A3035 RMK AO2 PK WND 22036/2029 SLP292 T10171083 58024
KBUF 211954Z 25022G35KT 10SM FEW025 M01/M08 A3038 RMK AO2 PK WND 23036/1938 SLP300 T10111083
KBUF 211854Z 23026G33KT 10SM FEW028 M02/M09 A3040 RMK AO2 PK WND 22033/1853 SLP307 T10171094
KBUF 211754Z 24019G28KT 10SM FEW030 M02/M09 A3043 RMK AO2 PK WND 26032/1738 SLP315 60000 T10171089 11011 21072 58012
KBUF 211700Z 23020G30KT 10SM FEW028 M02/M09 A3045 RMK AO2 PK WND 23029/1658 T10171094
KBUF 211654Z 23021G30KT 10SM CLR M02/M09 A3045 RMK AO2 PK WND 23030/1653 SLP322 T10171094
KBUF 211554Z 23021G27KT 10SM FEW026 M02/M10 A3045 RMK AO2 PK WND 21027/1554 SLP325 P0000 T10221100
KBUF 211454Z 24015G26KT 10SM FEW028 M03/M11 A3046 RMK AO2 PK WND 24026/1447 SLP329 T10331111 58005
KBUF 211354Z 26011KT 10SM FEW026 M04/M12 A3047 RMK AO2 SLP332 T10441122
KBUF 211254Z 26009KT 10SM FEW026 M07/M15 A3047 RMK AO2 SLP333 T10671150
KBUF 211154Z 27010KT 10SM FEW026 M07/M15 A3048 RMK AO2 SLP334 T10721150 11072 21083 58003
KBUF 211127Z 27009KT 10SM SCT027 M07/M14 A3048 RMK AO2 T10721144
KBUF 211104Z 27009KT 10SM BKN026 M07/M14 A3049 RMK AO2 T10721144
KBUF 211054Z 28008KT 10SM SCT028 M07/M14 A3049 RMK AO2 SLP337 T10721139
KBUF 210954Z 26005KT 10SM FEW030 M08/M13 A3048 RMK AO2 SLP334 T10781133
KBUF 210854Z 25006KT 10SM CLR M08/M13 A3049 RMK AO2 SLP338 T10831133 58008
KBUF 210754Z 24005KT 10SM FEW031 M08/M13 A3050 RMK AO2 SLP342 T10831133
KBUF 210654Z 25006KT 10SM FEW030 M08/M13 A3051 RMK AO2 SLP344 T10831133
KBUF 210554Z 27008KT 10SM FEW035 M08/M14 A3051 RMK AO2 SLP346 T10781139 11056 21078 58002
KBUF 210454Z 28009KT 10SM SCT035 M07/M14 A3052 RMK AO2 SLP347 T10721139 410331078
KBUF 210354Z 28010KT 10SM SCT036 M07/M14 A3052 RMK AO2 SLP348 T10721144
KBUF 210254Z 29011KT 10SM SCT036 M07/M14 A3052 RMK AO2 SLP348 T10671144 53010